This is the latest recevied weather packets stored in our database for station/object DO7ZT-13. If no packets are shown the sender has not sent any weather packets the latest 10 day(s).
| Time | Temp. | Humidity | Pressure | Rain* | Wind** | Luminosity | Snow |
|---|---|---|---|---|---|---|---|
| 1777672224 | 7.78° C | 71% | 1025.5 hPa | 0 mm | 0.45 m/s, 126° | - | - |
| 1777671311 | 7.78° C | 70% | 1025.7 hPa | 0 mm | 0.45 m/s, 126° | - | - |
| 1777671024 | 8.89° C | 70% | 1025.6 hPa | 0 mm | 0.45 m/s, 126° | - | - |
| 1777670424 | 8.89° C | 67% | 1025.6 hPa | 0 mm | 0.45 m/s, 126° | - | - |
| 1777669824 | 7.78° C | 70% | 1025.6 hPa | 0 mm | 0.45 m/s, 144° | - | - |
| 1777669227 | 7.78° C | 70% | 1025.6 hPa | 0 mm | 0.89 m/s, 134° | - | - |
| 1777667711 | 8.89° C | 67% | 1025.6 hPa | 0 mm | 0.45 m/s, 126° | - | - |
| 1777666824 | 8.89° C | 67% | 1025.6 hPa | 0 mm | 0.45 m/s, 126° | - | - |
| 1777666224 | 10° C | 61% | 1025.6 hPa | 0 mm | 0.45 m/s, 126° | - | - |
| 1777665624 | 10° C | 61% | 1025.7 hPa | 0 mm | 0.45 m/s, 126° | - | - |
| 1777664724 | 10° C | 68% | 1025.7 hPa | 0 mm | 0.45 m/s, 126° | - | - |
| 1777663211 | 11.11° C | 61% | 1025.7 hPa | 0 mm | 0.45 m/s, 120° | - | - |
| 1777662924 | 11.11° C | 62% | 1025.4 hPa | 0 mm | 0.45 m/s, 120° | - | - |
| 1777662323 | 11.11° C | 61% | 1025.4 hPa | 0 mm | 0.45 m/s, 102° | - | - |
| 1777661723 | 12.22° C | 59% | 1025.5 hPa | 0 mm | 0.45 m/s, 102° | - | - |
| 1777660810 | 12.22° C | 60% | 1025.4 hPa | 0 mm | 0.45 m/s, 102° | - | - |
| 1777660523 | 12.78° C | 59% | 1025.4 hPa | 0 mm | 0.45 m/s, 102° | - | - |
| 1777660213 | 13.89° C | 54% | 1025.3 hPa | 0 mm | 0.45 m/s, 96° | - | - |
| 1777659923 | 13.89° C | 57% | 1025.3 hPa | 0 mm | 0.45 m/s, 96° | - | - |
| 1777659611 | 13.89° C | 55% | 1025.3 hPa | 0 mm | 0.89 m/s, 84° | - | - |
| 1777659323 | 15° C | 55% | 1025.1 hPa | 0 mm | 0.45 m/s, 78° | - | - |
| 1777659010 | 16.11° C | 53% | 1025.1 hPa | 0 mm | 0.89 m/s, 78° | - | - |
| 1777658418 | 17.22° C | 48% | 1025.1 hPa | 0 mm | 0 m/s | - | - |
| 1777658123 | 17.78° C | 43% | 1025.1 hPa | 0 mm | 0 m/s | - | - |
| 1777656623 | 21.11° C | 35% | 1025.1 hPa | 0 mm | 0 m/s | - | - |
* Rain latest hour (hover to see other rain measurements)
** Current wind speed in m/s (hover to see current wind gust speed)